CheckWX is a tool to help pilots better visualize weather data.  It is not intended as a substitute for an official pre-flight weather briefing.

21:12:36 UTC

CWSA TAF
Sable Island Airport
Canada
TAF CWSA 171938Z 1720/1724 02015G25KT P6SM SCT008 OVC030 TEMPO 1720/1724 5SM -SHRA BR BKN008 OVC030 RMK FCST BASED ON AUTO OBS. NXT FCST WILL BE ISSUED AT 180745Z

Sep-17@
20:00 UTC

Sep-17 @ 20:00 UTC

Sep-18@
00:00 UTC

Sep-18 @ 00:00 UTC

TAF CWSA 171938Z 1720/1724 02015G25KT P6SM SCT008 OVC030
Wind
  • 020° at 15 KTS
  • {Gusting to 25 KTS
Cloud Levels
  • Scattered at 800' AGL
  • Overcast at 3,000' AGL

Sep-17@
20:00 UTC

Sep-17 @ 20:00 UTC

Sep-18@
00:00 UTC

Sep-18 @ 00:00 UTC

TEMPO 1720/1724 5SM -SHRA BR BKN008 OVC030 RMK FCST BASED ON AUTO OBS. NXT FCST WILL BE ISSUED AT 180745Z

Temporary

Temporary Changes expected for less than half the time period

Conditions
Light Rain, Mist
Cloud Levels
  • Broken at 800' AGL
  • Overcast at 3,000' AGL